createdAt,value
2024-05-09T00:00:45.785Z,5.00
2024-05-09T00:03:13.531Z,4.97
2024-05-09T00:05:41.930Z,4.90
2024-05-09T00:08:10.411Z,5.07
2024-05-09T00:10:39.595Z,5.17
2024-05-09T00:13:08.801Z,5.10
2024-05-09T00:15:36.523Z,5.13
2024-05-09T00:18:05.236Z,4.57
2024-05-09T00:20:38.447Z,5.30
2024-05-09T00:23:12.401Z,4.87
2024-05-09T00:25:42.994Z,5.03
2024-05-09T00:28:11.481Z,4.73
2024-05-09T00:30:38.359Z,4.93
2024-05-09T00:33:06.702Z,4.87
2024-05-09T00:35:34.797Z,5.40
2024-05-09T00:38:01.631Z,5.20
2024-05-09T00:40:39.552Z,5.00
2024-05-09T00:43:09.719Z,4.80
2024-05-09T00:45:36.443Z,5.20
2024-05-09T00:48:06.743Z,5.23
2024-05-09T00:50:37.565Z,5.27
2024-05-09T00:53:06.403Z,4.83
2024-05-09T00:55:35.035Z,5.00
2024-05-09T00:58:02.482Z,4.70
2024-05-09T01:00:37.771Z,5.27
2024-05-09T01:03:07.616Z,4.30
2024-05-09T01:05:35.330Z,4.50
2024-05-09T01:08:02.991Z,4.87
2024-05-09T01:10:34.527Z,4.80
2024-05-09T01:13:06.469Z,5.47
2024-05-09T01:15:34.639Z,4.70
2024-05-09T01:18:06.925Z,4.87
2024-05-09T01:20:41.073Z,4.87
2024-05-09T01:23:11.151Z,5.03
2024-05-09T01:25:38.268Z,5.80
2024-05-09T01:28:06.056Z,5.73
2024-05-09T01:30:35.901Z,5.50
2024-05-09T01:33:09.590Z,6.20
2024-05-09T01:35:40.871Z,5.90
2024-05-09T01:38:09.671Z,5.63
2024-05-09T01:40:39.237Z,6.10
2024-05-09T01:43:08.896Z,6.47
2024-05-09T01:45:36.670Z,6.53
2024-05-09T01:48:03.892Z,6.57
2024-05-09T01:50:38.360Z,5.97
2024-05-09T01:53:13.954Z,6.00
2024-05-09T01:55:41.514Z,6.17
2024-05-09T01:58:08.752Z,6.00
2024-05-09T02:00:40.337Z,6.63
2024-05-09T02:03:13.564Z,6.47
2024-05-09T02:05:43.762Z,6.40
2024-05-09T02:08:15.489Z,6.80
2024-05-09T02:10:44.112Z,6.93
2024-05-09T02:13:11.123Z,6.50
2024-05-09T02:15:38.062Z,7.30
2024-05-09T02:18:05.497Z,6.43
2024-05-09T02:20:36.272Z,5.97
2024-05-09T02:23:05.997Z,7.23
2024-05-09T02:25:33.249Z,6.80
2024-05-09T02:28:00.028Z,6.00
2024-05-09T02:30:37.715Z,6.03
2024-05-09T02:33:08.988Z,7.60
2024-05-09T02:35:36.615Z,7.07
2024-05-09T02:38:03.632Z,6.43
2024-05-09T02:40:36.751Z,6.60
2024-05-09T02:43:06.524Z,6.50
2024-05-09T02:45:33.544Z,6.83
2024-05-09T02:48:00.941Z,7.73
2024-05-09T02:50:34.619Z,6.87
2024-05-09T02:53:06.359Z,7.23
2024-05-09T02:55:33.936Z,7.47
2024-05-09T02:58:00.634Z,7.47
2024-05-09T03:00:36.309Z,7.30
2024-05-09T03:03:08.331Z,7.47
2024-05-09T03:05:36.506Z,7.57
2024-05-09T03:08:03.688Z,7.10
2024-05-09T03:10:35.882Z,7.53
2024-05-09T03:13:14.728Z,7.03
2024-05-09T03:15:43.086Z,7.27
2024-05-09T03:18:10.678Z,7.30
2024-05-09T03:20:38.052Z,7.87
2024-05-09T03:23:08.091Z,7.57
2024-05-09T03:25:35.874Z,7.33
2024-05-09T03:28:02.710Z,8.07
2024-05-09T03:30:36.381Z,8.27
2024-05-09T03:33:12.904Z,7.13
2024-05-09T03:35:40.902Z,7.87
2024-05-09T03:38:07.688Z,7.53
2024-05-09T03:40:34.449Z,7.50
2024-05-09T03:43:01.110Z,7.10
2024-05-09T03:45:27.838Z,7.00
2024-05-09T03:47:54.793Z,8.00
2024-05-09T03:50:29.856Z,7.97
2024-05-09T03:53:01.644Z,7.23
2024-05-09T03:55:28.570Z,7.80
2024-05-09T03:57:55.239Z,7.77
2024-05-09T04:00:30.915Z,7.27
2024-05-09T04:03:04.454Z,7.87
2024-05-09T04:05:32.659Z,7.10
2024-05-09T04:07:59.549Z,7.10
2024-05-09T04:10:32.827Z,6.60
2024-05-09T04:13:01.515Z,7.23
2024-05-09T04:15:28.248Z,6.90
2024-05-09T04:17:55.835Z,6.67
2024-05-09T04:20:33.405Z,7.07
2024-05-09T04:23:06.713Z,7.20
2024-05-09T04:25:33.969Z,7.00
2024-05-09T04:28:00.683Z,7.43
2024-05-09T04:30:36.365Z,7.03
2024-05-09T04:33:09.263Z,7.30
2024-05-09T04:35:38.406Z,8.20
2024-05-09T04:38:05.880Z,10.07
2024-05-09T04:40:35.804Z,9.33
2024-05-09T04:43:13.443Z,9.23
2024-05-09T04:45:40.582Z,7.67
2024-05-09T04:48:08.204Z,8.43
2024-05-09T04:50:38.320Z,8.73
2024-05-09T04:53:10.847Z,8.47
2024-05-09T04:55:39.043Z,8.50
2024-05-09T04:58:08.791Z,7.63
2024-05-09T05:00:38.655Z,8.10
2024-05-09T05:03:10.114Z,7.73
2024-05-09T05:05:42.545Z,7.17
2024-05-09T05:08:17.571Z,7.93
2024-05-09T05:10:45.836Z,7.67
2024-05-09T05:13:18.099Z,7.27
2024-05-09T05:15:49.774Z,7.10
2024-05-09T05:18:17.213Z,8.07
2024-05-09T05:20:44.353Z,8.03
2024-05-09T05:23:13.558Z,7.97
2024-05-09T05:25:41.281Z,8.97
2024-05-09T05:28:08.250Z,9.00
2024-05-09T05:30:37.580Z,9.00
2024-05-09T05:33:06.273Z,9.27
2024-05-09T05:35:34.361Z,9.67
2024-05-09T05:38:01.560Z,9.50
2024-05-09T05:40:36.170Z,9.93
2024-05-09T05:43:05.914Z,9.67
2024-05-09T05:45:32.903Z,10.47
2024-05-09T05:48:00.276Z,11.07
2024-05-09T05:50:32.986Z,11.60
2024-05-09T05:53:03.422Z,9.90
2024-05-09T05:55:30.256Z,10.80
2024-05-09T05:57:56.907Z,10.70
2024-05-09T06:00:29.960Z,9.87
2024-05-09T06:03:05.068Z,9.80
2024-05-09T06:05:32.512Z,10.17
2024-05-09T06:07:59.580Z,9.70
2024-05-09T06:10:34.844Z,9.77
2024-05-09T06:13:05.655Z,10.27
2024-05-09T06:15:32.346Z,9.37
2024-05-09T06:17:59.481Z,11.07
2024-05-09T06:20:34.518Z,11.03
2024-05-09T06:23:04.675Z,10.37
2024-05-09T06:25:31.768Z,10.77
2024-05-09T06:28:00.216Z,10.40
2024-05-09T06:30:36.539Z,10.27
2024-05-09T06:33:08.824Z,11.17
2024-05-09T06:35:36.985Z,10.73
2024-05-09T06:38:04.200Z,11.87
2024-05-09T06:40:37.248Z,10.17
2024-05-09T06:43:18.162Z,10.97
2024-05-09T06:45:50.444Z,11.87
2024-05-09T06:48:19.297Z,12.03
2024-05-09T06:50:46.955Z,10.70
2024-05-09T06:53:14.998Z,10.10
2024-05-09T06:55:41.916Z,10.30
2024-05-09T06:58:11.514Z,9.40
2024-05-09T07:00:40.724Z,10.07
2024-05-09T07:03:15.867Z,8.10
2024-05-09T07:05:46.256Z,9.03
2024-05-09T07:08:14.017Z,8.93
2024-05-09T07:10:41.036Z,8.53
2024-05-09T07:13:11.678Z,8.30
2024-05-09T07:15:38.917Z,8.83
2024-05-09T07:18:16.687Z,8.30
2024-05-09T07:20:45.339Z,9.40
2024-05-09T07:23:12.919Z,9.13
2024-05-09T07:25:40.914Z,9.63
2024-05-09T07:28:15.919Z,8.40
2024-05-09T07:30:42.932Z,9.47
2024-05-09T07:33:09.959Z,8.80
2024-05-09T07:35:36.855Z,9.27
2024-05-09T07:38:03.726Z,9.10
2024-05-09T07:40:35.897Z,8.87
2024-05-09T07:43:15.901Z,8.93
2024-05-09T07:45:51.354Z,10.30
2024-05-09T07:52:38.602Z,9.87
2024-05-09T07:53:46.937Z,9.87
2024-05-09T07:56:17.411Z,8.60
2024-05-09T07:58:45.758Z,9.80
2024-05-09T08:01:12.653Z,10.33
2024-05-09T08:03:39.607Z,9.90
2024-05-09T08:06:06.415Z,9.43
2024-05-09T08:08:33.109Z,8.37
2024-05-09T08:10:59.834Z,9.10
2024-05-09T08:13:26.538Z,7.97
2024-05-09T08:15:53.335Z,9.40
2024-05-09T08:18:20.345Z,8.10
2024-05-09T08:20:48.824Z,9.50
2024-05-09T08:23:15.831Z,9.33
2024-05-09T08:25:42.555Z,9.47
2024-05-09T08:28:10.916Z,10.00
2024-05-09T08:30:38.409Z,11.03
2024-05-09T08:33:06.934Z,9.03
2024-05-09T08:35:34.860Z,8.23
2024-05-09T08:38:03.716Z,9.17
2024-05-09T08:40:35.600Z,8.60
2024-05-09T08:43:08.224Z,7.07
2024-05-09T08:45:35.997Z,5.60
2024-05-09T08:48:05.885Z,5.83
2024-05-09T08:50:38.662Z,6.90
2024-05-09T08:53:07.981Z,6.10
2024-05-09T08:55:37.394Z,6.40
2024-05-09T08:58:07.372Z,6.73
2024-05-09T09:00:37.420Z,6.90
2024-05-09T09:03:08.715Z,6.37
2024-05-09T09:05:39.320Z,6.00
2024-05-09T09:08:08.130Z,5.37
2024-05-09T09:10:35.350Z,5.83
2024-05-09T09:13:04.213Z,6.50
2024-05-09T09:15:31.276Z,5.93
2024-05-09T09:18:01.720Z,7.57
2024-05-09T09:20:36.385Z,6.23
2024-05-09T09:23:04.566Z,6.60
2024-05-09T09:25:31.839Z,7.40
2024-05-09T09:27:59.190Z,6.93
2024-05-09T09:30:36.334Z,7.60
2024-05-09T09:33:06.252Z,7.03
2024-05-09T09:35:34.315Z,7.13
2024-05-09T09:38:02.983Z,6.60
2024-05-09T09:40:42.488Z,6.53
2024-05-09T09:43:23.049Z,7.27
2024-05-09T09:45:51.305Z,6.73
2024-05-09T09:48:20.281Z,7.17
2024-05-09T09:50:48.366Z,5.97
2024-05-09T09:53:16.414Z,5.87
2024-05-09T09:55:43.841Z,6.53
2024-05-09T09:58:13.452Z,7.93
2024-05-09T10:00:41.827Z,8.03
2024-05-09T10:03:09.127Z,8.03
2024-05-09T10:05:36.593Z,7.00
2024-05-09T10:08:07.260Z,7.63
2024-05-09T10:10:35.730Z,7.07
2024-05-09T10:13:07.499Z,5.87
2024-05-09T10:15:47.753Z,6.97
2024-05-09T10:18:15.258Z,7.13
2024-05-09T10:20:43.394Z,6.67
2024-05-09T10:23:27.790Z,5.73
2024-05-09T10:26:03.029Z,6.50
2024-05-09T10:28:35.327Z,5.73
2024-05-09T10:31:13.149Z,5.43
2024-05-09T10:33:52.639Z,4.60
2024-05-09T10:36:23.637Z,3.67
2024-05-09T10:38:52.482Z,3.40
2024-05-09T10:41:20.498Z,3.50
2024-05-09T10:43:47.983Z,4.60
2024-05-09T10:46:15.701Z,6.77
2024-05-09T10:48:43.882Z,5.57
2024-05-09T10:51:10.930Z,4.90
2024-05-09T10:53:42.519Z,4.17
2024-05-09T10:56:09.781Z,4.87
2024-05-09T10:58:37.275Z,4.40
2024-05-09T11:01:06.990Z,4.80
2024-05-09T11:03:35.338Z,5.13
2024-05-09T11:06:02.695Z,3.90
2024-05-09T11:08:31.794Z,3.80
2024-05-09T11:10:59.699Z,4.70
2024-05-09T11:13:27.196Z,4.60
2024-05-09T11:15:54.026Z,4.90
2024-05-09T11:18:25.449Z,6.47
2024-05-09T11:20:54.213Z,8.33
2024-05-09T11:23:22.805Z,6.43
2024-05-09T11:25:53.434Z,7.47
2024-05-09T11:28:21.082Z,7.93
2024-05-09T11:30:48.846Z,8.93
2024-05-09T11:33:17.197Z,8.00
2024-05-09T11:35:44.727Z,8.70
2024-05-09T11:38:11.688Z,7.83
2024-05-09T11:40:38.813Z,7.70
2024-05-09T11:43:06.003Z,8.20
2024-05-09T11:45:32.962Z,8.27
2024-05-09T11:47:59.909Z,8.17
2024-05-09T11:50:32.735Z,7.60
2024-05-09T11:53:02.313Z,7.07
2024-05-09T11:55:29.179Z,6.37
2024-05-09T11:57:56.780Z,6.93
2024-05-09T12:02:54.229Z,8.13
2024-05-09T12:05:21.105Z,8.77
2024-05-09T12:07:48.000Z,6.40
2024-05-09T12:10:19.631Z,6.57
2024-05-09T12:12:49.285Z,7.47
2024-05-09T12:15:16.067Z,7.53
2024-05-09T12:17:42.948Z,7.67
2024-05-09T12:20:17.505Z,7.90
2024-05-09T12:22:52.883Z,8.37
2024-05-09T12:25:19.658Z,8.10
2024-05-09T12:27:46.369Z,7.63
2024-05-09T12:30:20.714Z,6.77
2024-05-09T12:32:55.184Z,9.07
2024-05-09T12:35:21.929Z,8.33
2024-05-09T12:37:48.566Z,6.83
2024-05-09T12:40:22.954Z,6.57
2024-05-09T12:42:58.176Z,6.37
2024-05-09T12:45:24.909Z,7.40
2024-05-09T12:47:51.701Z,7.97
2024-05-09T12:50:25.244Z,6.43
2024-05-09T12:52:58.229Z,6.73
2024-05-09T12:55:25.010Z,7.23
2024-05-09T12:57:51.768Z,6.70
2024-05-09T13:00:24.045Z,6.27
2024-05-09T13:02:57.935Z,5.73
2024-05-09T13:05:24.843Z,9.03
2024-05-09T13:07:51.652Z,7.63
2024-05-09T13:10:28.664Z,6.83
2024-05-09T13:12:59.439Z,7.00
2024-05-09T13:15:26.485Z,6.00
2024-05-09T13:17:54.105Z,6.13
2024-05-09T13:20:29.260Z,5.47
2024-05-09T13:23:01.864Z,5.93
2024-05-09T13:25:28.694Z,6.80
2024-05-09T13:27:56.424Z,6.10
2024-05-09T13:30:29.774Z,5.83
2024-05-09T13:33:06.577Z,5.97
2024-05-09T13:35:35.190Z,6.00
2024-05-09T13:38:02.929Z,6.07
2024-05-09T13:40:34.199Z,7.00
2024-05-09T13:43:04.558Z,5.97
2024-05-09T13:45:31.684Z,6.80
2024-05-09T13:47:58.862Z,7.00
2024-05-09T13:50:32.893Z,6.50
2024-05-09T13:53:02.704Z,6.57
2024-05-09T13:55:29.544Z,5.10
2024-05-09T13:57:56.633Z,6.63
2024-05-09T14:00:37.753Z,6.30
2024-05-09T14:03:10.489Z,6.73
2024-05-09T14:05:37.412Z,7.60
2024-05-09T14:08:04.653Z,6.60
2024-05-09T14:10:32.447Z,6.33
2024-05-09T14:13:01.050Z,6.20
2024-05-09T14:15:28.122Z,6.43
2024-05-09T14:17:55.470Z,7.67
2024-05-09T14:20:30.454Z,6.40
2024-05-09T14:23:01.925Z,8.60
2024-05-09T14:25:30.130Z,8.20
2024-05-09T14:28:00.270Z,7.27
2024-05-09T14:30:34.742Z,9.03
2024-05-09T14:33:05.905Z,10.90
2024-05-09T14:35:33.611Z,10.70
2024-05-09T14:38:00.484Z,10.80
2024-05-09T14:40:37.170Z,10.70
2024-05-09T14:43:10.347Z,10.00
2024-05-09T14:45:37.392Z,9.97
2024-05-09T14:48:04.708Z,11.10
2024-05-09T14:50:36.806Z,11.17
2024-05-09T14:53:07.633Z,10.10
2024-05-09T14:55:37.357Z,11.20
2024-05-09T14:58:09.711Z,11.33
2024-05-09T15:00:46.072Z,10.63
2024-05-09T15:03:17.399Z,10.87
2024-05-09T15:05:45.070Z,10.77
2024-05-09T15:08:11.949Z,11.30
2024-05-09T15:10:39.099Z,10.17
2024-05-09T15:13:07.891Z,10.87
2024-05-09T15:15:36.944Z,11.17
2024-05-09T15:18:04.859Z,9.97
2024-05-09T15:20:35.873Z,10.10
2024-05-09T15:23:06.229Z,9.63
2024-05-09T15:25:34.010Z,10.73
2024-05-09T15:28:00.899Z,10.80
2024-05-09T15:30:31.067Z,10.67
2024-05-09T15:33:00.758Z,10.00
2024-05-09T15:35:27.915Z,12.50
2024-05-09T15:37:54.944Z,10.90
2024-05-09T15:40:31.010Z,9.23
2024-05-09T15:43:05.373Z,10.00
2024-05-09T15:45:32.628Z,9.53
2024-05-09T15:48:00.017Z,11.27
2024-05-09T15:50:35.727Z,10.27
2024-05-09T15:53:07.018Z,10.07
2024-05-09T15:55:34.857Z,9.27
2024-05-09T15:58:02.679Z,10.90
2024-05-09T16:00:37.374Z,10.77
2024-05-09T16:03:08.465Z,12.00
2024-05-09T16:05:36.632Z,12.23
2024-05-09T16:08:03.991Z,11.53
2024-05-09T16:10:33.136Z,11.73
2024-05-09T16:13:01.789Z,11.40
2024-05-09T16:15:28.982Z,11.37
2024-05-09T16:17:56.130Z,11.00
2024-05-09T16:20:34.202Z,11.47
2024-05-09T16:23:06.409Z,9.97
2024-05-09T16:25:33.290Z,11.33
2024-05-09T16:28:00.218Z,11.87
2024-05-09T16:30:31.916Z,12.50
2024-05-09T16:33:03.192Z,11.27
2024-05-09T16:35:30.360Z,11.40
2024-05-09T16:37:57.349Z,9.87
2024-05-09T16:40:33.178Z,9.90
2024-05-09T16:43:04.982Z,9.50
2024-05-09T16:45:31.990Z,7.70
2024-05-09T16:47:59.712Z,8.17
2024-05-09T16:50:32.371Z,7.30
2024-05-09T16:53:01.793Z,7.90
2024-05-09T16:55:31.035Z,6.73
2024-05-09T16:57:58.341Z,6.30
2024-05-09T17:00:35.595Z,6.60
2024-05-09T17:03:09.639Z,6.20
2024-05-09T17:05:37.135Z,7.17
2024-05-09T17:08:04.390Z,6.00
2024-05-09T17:10:33.817Z,6.93
2024-05-09T17:13:06.708Z,6.47
2024-05-09T17:15:35.282Z,7.00
2024-05-09T17:18:02.591Z,7.73
2024-05-09T17:20:33.890Z,7.57
2024-05-09T17:23:04.563Z,7.53
2024-05-09T17:25:31.941Z,8.13
2024-05-09T17:28:05.317Z,6.57
2024-05-09T17:30:36.588Z,6.77
2024-05-09T17:33:06.071Z,7.47
2024-05-09T17:35:32.939Z,7.03
2024-05-09T17:38:01.404Z,6.20
2024-05-09T17:40:33.460Z,7.20
2024-05-09T17:43:04.177Z,6.83
2024-05-09T17:45:31.945Z,7.90
2024-05-09T17:47:59.457Z,8.07
2024-05-09T17:50:31.904Z,6.67
2024-05-09T17:53:03.543Z,8.27
2024-05-09T17:55:30.477Z,6.77
2024-05-09T17:57:57.471Z,6.10
2024-05-09T18:00:33.744Z,6.87
2024-05-09T18:03:06.233Z,6.43
2024-05-09T18:05:37.611Z,6.10
2024-05-09T18:08:06.280Z,6.77
2024-05-09T18:10:37.189Z,6.57
2024-05-09T18:13:11.144Z,5.73
2024-05-09T18:15:38.900Z,5.70
2024-05-09T18:18:06.604Z,6.33
2024-05-09T18:20:41.606Z,6.20
2024-05-09T18:23:13.141Z,6.40
2024-05-09T18:25:40.363Z,5.70
2024-05-09T18:28:07.778Z,5.90
2024-05-09T18:30:36.525Z,5.77
2024-05-09T18:33:06.416Z,5.77
2024-05-09T18:35:37.007Z,5.47
2024-05-09T18:38:04.691Z,6.50
2024-05-09T18:40:35.353Z,5.60
2024-05-09T18:43:07.406Z,6.07
2024-05-09T18:45:39.474Z,5.33
2024-05-09T18:48:08.184Z,5.77
2024-05-09T18:50:39.165Z,5.93
2024-05-09T18:53:10.077Z,5.60
2024-05-09T18:55:37.163Z,5.93
2024-05-09T18:58:04.989Z,6.10
2024-05-09T19:00:36.230Z,6.80
2024-05-09T19:03:11.830Z,7.33
2024-05-09T19:05:41.690Z,7.87
2024-05-09T19:08:09.431Z,6.50
2024-05-09T19:10:38.375Z,6.20
2024-05-09T19:13:09.234Z,6.80
2024-05-09T19:15:40.378Z,6.23
2024-05-09T19:18:07.835Z,7.03
2024-05-09T19:20:36.465Z,6.80
2024-05-09T19:23:05.390Z,6.30
2024-05-09T19:25:32.915Z,6.83
2024-05-09T19:28:00.311Z,6.80
2024-05-09T19:30:36.548Z,6.60
2024-05-09T19:33:07.902Z,6.23
2024-05-09T19:35:34.783Z,6.83
2024-05-09T19:38:01.958Z,6.90
2024-05-09T19:40:31.985Z,7.10
2024-05-09T19:43:05.113Z,7.27
2024-05-09T19:45:33.899Z,6.73
2024-05-09T19:48:01.867Z,6.43
2024-05-09T19:50:37.014Z,6.53
2024-05-09T19:53:09.701Z,6.60
2024-05-09T19:55:36.729Z,6.80
2024-05-09T19:58:05.440Z,6.30
2024-05-09T20:00:39.840Z,6.07
2024-05-09T20:03:09.614Z,6.50
2024-05-09T20:05:37.594Z,5.87
2024-05-09T20:08:05.729Z,6.27
2024-05-09T20:10:35.029Z,6.30
2024-05-09T20:13:04.604Z,7.10
2024-05-09T20:15:33.644Z,6.50
2024-05-09T20:18:00.578Z,6.83
2024-05-09T20:20:35.544Z,6.63
2024-05-09T20:23:06.371Z,6.70
2024-05-09T20:25:33.262Z,7.13
2024-05-09T20:28:00.740Z,7.20
2024-05-09T20:30:32.193Z,7.20
2024-05-09T20:33:02.959Z,7.50
2024-05-09T20:35:32.594Z,6.83
2024-05-09T20:38:00.822Z,6.97
2024-05-09T20:40:32.687Z,7.20
2024-05-09T20:43:03.176Z,7.77
2024-05-09T20:45:30.080Z,8.17
2024-05-09T20:47:57.314Z,7.83
2024-05-09T20:50:35.092Z,7.57
2024-05-09T20:53:05.850Z,7.20
2024-05-09T20:55:32.598Z,7.00
2024-05-09T20:57:59.384Z,8.23
2024-05-09T21:00:34.879Z,7.30
2024-05-09T21:03:07.208Z,7.23
2024-05-09T21:05:35.185Z,7.20
2024-05-09T21:08:02.584Z,7.00
2024-05-09T21:10:32.933Z,8.60
2024-05-09T21:13:02.857Z,7.97
2024-05-09T21:15:30.356Z,7.50
2024-05-09T21:17:57.092Z,6.90
2024-05-09T21:20:30.502Z,7.37
2024-05-09T21:22:58.965Z,8.03
2024-05-09T21:25:25.902Z,7.53
2024-05-09T21:27:53.225Z,7.43
2024-05-09T21:32:51.026Z,7.30
2024-05-09T21:35:18.465Z,6.60
2024-05-09T21:37:45.210Z,7.30
2024-05-09T21:40:16.965Z,7.03
2024-05-09T21:42:50.843Z,6.47
2024-05-09T21:45:17.609Z,7.43
2024-05-09T21:47:44.550Z,7.67
2024-05-09T21:50:22.055Z,8.23
2024-05-09T21:52:50.186Z,7.83
2024-05-09T21:55:16.948Z,7.83
2024-05-09T21:57:43.651Z,8.00
2024-05-09T22:00:27.933Z,8.10
2024-05-09T22:03:02.001Z,7.43
2024-05-09T22:05:29.060Z,7.27
2024-05-09T22:07:56.435Z,7.63
2024-05-09T22:10:27.183Z,7.30
2024-05-09T22:13:00.149Z,7.57
2024-05-09T22:15:27.064Z,7.50
2024-05-09T22:17:54.949Z,8.33
2024-05-09T22:20:28.986Z,7.63
2024-05-09T22:23:02.753Z,7.37
2024-05-09T22:25:31.042Z,7.67
2024-05-09T22:27:58.968Z,8.10
2024-05-09T22:30:34.351Z,7.77
2024-05-09T22:33:05.851Z,8.63
2024-05-09T22:35:33.078Z,8.50
2024-05-09T22:37:59.911Z,8.63
2024-05-09T22:40:38.195Z,8.20
2024-05-09T22:43:13.329Z,8.70
2024-05-09T22:45:40.320Z,8.00
2024-05-09T22:48:08.246Z,8.77
2024-05-09T22:50:35.236Z,8.50
2024-05-09T22:53:02.055Z,9.03
2024-05-09T22:55:28.985Z,9.27
2024-05-09T22:57:56.075Z,9.60
2024-05-09T23:00:31.435Z,9.00
2024-05-09T23:03:03.646Z,9.37
2024-05-09T23:05:39.108Z,9.30
2024-05-09T23:08:06.179Z,8.80
2024-05-09T23:10:36.660Z,9.13
2024-05-09T23:13:06.841Z,9.03
2024-05-09T23:15:37.233Z,9.40
2024-05-09T23:18:05.194Z,9.47
2024-05-09T23:20:37.488Z,8.90
2024-05-09T23:23:07.523Z,9.47
2024-05-09T23:25:36.808Z,9.80
2024-05-09T23:28:04.227Z,9.10
2024-05-09T23:30:38.609Z,9.30
2024-05-09T23:33:10.356Z,9.20
2024-05-09T23:35:38.613Z,8.43
2024-05-09T23:38:08.950Z,9.57
2024-05-09T23:40:39.720Z,10.23
2024-05-09T23:43:10.641Z,11.40
2024-05-09T23:45:38.751Z,9.97
2024-05-09T23:48:06.251Z,10.17
2024-05-09T23:50:36.537Z,10.03
2024-05-09T23:53:07.785Z,11.20
2024-05-09T23:55:35.908Z,9.93
2024-05-09T23:58:05.801Z,10.43
